sensor_id;sensor_type;location;lat;lon;timestamp;P1;durP1;ratioP1;P2;durP2;ratioP2
79212;SDS011;68639;52.380;9.822;2024-01-11T00:00:15;75.30;;;35.47;;
79212;SDS011;68639;52.380;9.822;2024-01-11T00:02:41;75.87;;;34.07;;
79212;SDS011;68639;52.380;9.822;2024-01-11T00:05:06;78.60;;;35.17;;
79212;SDS011;68639;52.380;9.822;2024-01-11T00:07:31;76.57;;;35.57;;
79212;SDS011;68639;52.380;9.822;2024-01-11T00:09:57;72.43;;;34.27;;
79212;SDS011;68639;52.380;9.822;2024-01-11T00:12:22;73.67;;;34.57;;
79212;SDS011;68639;52.380;9.822;2024-01-11T00:14:47;77.93;;;35.17;;
79212;SDS011;68639;52.380;9.822;2024-01-11T00:17:12;72.70;;;33.60;;
79212;SDS011;68639;52.380;9.822;2024-01-11T00:19:37;71.13;;;33.27;;
79212;SDS011;68639;52.380;9.822;2024-01-11T00:22:03;69.87;;;32.77;;
79212;SDS011;68639;52.380;9.822;2024-01-11T00:24:28;73.00;;;32.07;;
79212;SDS011;68639;52.380;9.822;2024-01-11T00:26:53;68.60;;;33.17;;
79212;SDS011;68639;52.380;9.822;2024-01-11T00:29:19;65.57;;;31.77;;
79212;SDS011;68639;52.380;9.822;2024-01-11T00:31:44;68.73;;;32.40;;
79212;SDS011;68639;52.380;9.822;2024-01-11T00:34:09;67.73;;;32.10;;
79212;SDS011;68639;52.380;9.822;2024-01-11T00:36:34;66.43;;;31.67;;
79212;SDS011;68639;52.380;9.822;2024-01-11T00:39:01;65.60;;;30.67;;
79212;SDS011;68639;52.380;9.822;2024-01-11T00:41:26;60.70;;;30.30;;
79212;SDS011;68639;52.380;9.822;2024-01-11T00:43:52;66.43;;;30.00;;
79212;SDS011;68639;52.380;9.822;2024-01-11T00:46:17;61.97;;;30.03;;
79212;SDS011;68639;52.380;9.822;2024-01-11T00:48:42;63.70;;;30.17;;
79212;SDS011;68639;52.380;9.822;2024-01-11T00:51:07;58.37;;;28.70;;
79212;SDS011;68639;52.380;9.822;2024-01-11T00:53:32;66.73;;;31.30;;
79212;SDS011;68639;52.380;9.822;2024-01-11T00:55:58;66.17;;;30.47;;
79212;SDS011;68639;52.380;9.822;2024-01-11T00:58:23;67.37;;;30.60;;
79212;SDS011;68639;52.380;9.822;2024-01-11T01:00:48;62.67;;;29.73;;
79212;SDS011;68639;52.380;9.822;2024-01-11T01:03:14;62.93;;;29.20;;
79212;SDS011;68639;52.380;9.822;2024-01-11T01:05:41;65.53;;;30.77;;
79212;SDS011;68639;52.380;9.822;2024-01-11T01:08:06;59.90;;;28.97;;
79212;SDS011;68639;52.380;9.822;2024-01-11T01:10:31;63.23;;;30.50;;
79212;SDS011;68639;52.380;9.822;2024-01-11T01:12:56;66.73;;;31.10;;
79212;SDS011;68639;52.380;9.822;2024-01-11T01:15:21;63.37;;;29.47;;
79212;SDS011;68639;52.380;9.822;2024-01-11T01:17:47;63.17;;;29.83;;
79212;SDS011;68639;52.380;9.822;2024-01-11T01:20:12;60.77;;;29.07;;
79212;SDS011;68639;52.380;9.822;2024-01-11T01:22:37;61.63;;;28.27;;
79212;SDS011;68639;52.380;9.822;2024-01-11T01:25:02;57.40;;;28.13;;
79212;SDS011;68639;52.380;9.822;2024-01-11T01:27:27;57.03;;;27.20;;
79212;SDS011;68639;52.380;9.822;2024-01-11T01:29:53;58.47;;;28.07;;
79212;SDS011;68639;52.380;9.822;2024-01-11T01:32:18;61.50;;;28.70;;
79212;SDS011;68639;52.380;9.822;2024-01-11T01:34:43;55.03;;;27.43;;
79212;SDS011;68639;52.380;9.822;2024-01-11T01:37:08;57.90;;;27.33;;
79212;SDS011;68639;52.380;9.822;2024-01-11T01:39:37;57.83;;;28.37;;
79212;SDS011;68639;52.380;9.822;2024-01-11T01:42:02;63.93;;;29.10;;
79212;SDS011;68639;52.380;9.822;2024-01-11T01:44:27;53.50;;;26.70;;
79212;SDS011;68639;52.380;9.822;2024-01-11T01:46:52;56.23;;;27.23;;
79212;SDS011;68639;52.380;9.822;2024-01-11T01:49:18;57.27;;;26.73;;
79212;SDS011;68639;52.380;9.822;2024-01-11T01:51:47;54.97;;;26.77;;
79212;SDS011;68639;52.380;9.822;2024-01-11T01:54:12;58.97;;;27.83;;
79212;SDS011;68639;52.380;9.822;2024-01-11T01:56:37;59.07;;;29.37;;
79212;SDS011;68639;52.380;9.822;2024-01-11T01:59:02;57.77;;;27.80;;
79212;SDS011;68639;52.380;9.822;2024-01-11T02:01:28;56.37;;;26.27;;
79212;SDS011;68639;52.380;9.822;2024-01-11T02:03:53;54.63;;;27.53;;
79212;SDS011;68639;52.380;9.822;2024-01-11T02:06:19;56.07;;;27.47;;
79212;SDS011;68639;52.380;9.822;2024-01-11T02:08:46;55.67;;;27.00;;
79212;SDS011;68639;52.380;9.822;2024-01-11T02:11:13;61.23;;;27.00;;
79212;SDS011;68639;52.380;9.822;2024-01-11T02:13:38;53.87;;;26.77;;
79212;SDS011;68639;52.380;9.822;2024-01-11T02:16:03;57.40;;;26.93;;
79212;SDS011;68639;52.380;9.822;2024-01-11T02:18:29;56.93;;;27.67;;
79212;SDS011;68639;52.380;9.822;2024-01-11T02:20:54;59.57;;;28.67;;
79212;SDS011;68639;52.380;9.822;2024-01-11T02:23:21;61.43;;;27.73;;
79212;SDS011;68639;52.380;9.822;2024-01-11T02:25:46;61.20;;;28.43;;
79212;SDS011;68639;52.380;9.822;2024-01-11T02:28:12;62.17;;;28.00;;
79212;SDS011;68639;52.380;9.822;2024-01-11T02:30:37;60.73;;;27.93;;
79212;SDS011;68639;52.380;9.822;2024-01-11T02:33:02;61.13;;;28.13;;
79212;SDS011;68639;52.380;9.822;2024-01-11T02:35:28;59.67;;;27.83;;
79212;SDS011;68639;52.380;9.822;2024-01-11T02:37:53;58.47;;;27.63;;
79212;SDS011;68639;52.380;9.822;2024-01-11T02:40:19;61.33;;;28.70;;
79212;SDS011;68639;52.380;9.822;2024-01-11T02:42:44;61.77;;;29.27;;
79212;SDS011;68639;52.380;9.822;2024-01-11T02:45:10;58.93;;;27.10;;
79212;SDS011;68639;52.380;9.822;2024-01-11T02:47:35;61.80;;;28.33;;
79212;SDS011;68639;52.380;9.822;2024-01-11T02:50:01;60.30;;;28.57;;
79212;SDS011;68639;52.380;9.822;2024-01-11T02:52:26;61.97;;;29.00;;
79212;SDS011;68639;52.380;9.822;2024-01-11T02:54:51;61.50;;;27.17;;
79212;SDS011;68639;52.380;9.822;2024-01-11T02:57:16;61.50;;;28.63;;
79212;SDS011;68639;52.380;9.822;2024-01-11T02:59:42;66.77;;;29.30;;
79212;SDS011;68639;52.380;9.822;2024-01-11T03:02:08;58.13;;;28.20;;
79212;SDS011;68639;52.380;9.822;2024-01-11T03:04:33;56.97;;;28.57;;
79212;SDS011;68639;52.380;9.822;2024-01-11T03:06:58;62.27;;;30.03;;
79212;SDS011;68639;52.380;9.822;2024-01-11T03:09:23;59.90;;;28.97;;
79212;SDS011;68639;52.380;9.822;2024-01-11T03:11:49;58.33;;;28.23;;
79212;SDS011;68639;52.380;9.822;2024-01-11T03:14:14;58.63;;;28.47;;
79212;SDS011;68639;52.380;9.822;2024-01-11T03:16:39;59.80;;;28.90;;
79212;SDS011;68639;52.380;9.822;2024-01-11T03:19:05;64.53;;;28.37;;
79212;SDS011;68639;52.380;9.822;2024-01-11T03:21:30;58.87;;;28.07;;
79212;SDS011;68639;52.380;9.822;2024-01-11T03:23:55;55.17;;;28.30;;
79212;SDS011;68639;52.380;9.822;2024-01-11T03:26:20;58.70;;;28.43;;
79212;SDS011;68639;52.380;9.822;2024-01-11T03:28:45;59.73;;;27.10;;
79212;SDS011;68639;52.380;9.822;2024-01-11T03:31:10;63.83;;;28.83;;
79212;SDS011;68639;52.380;9.822;2024-01-11T03:33:36;60.77;;;27.23;;
79212;SDS011;68639;52.380;9.822;2024-01-11T03:36:08;55.87;;;27.20;;
79212;SDS011;68639;52.380;9.822;2024-01-11T03:38:33;54.90;;;26.00;;
79212;SDS011;68639;52.380;9.822;2024-01-11T03:40:58;65.97;;;28.20;;
79212;SDS011;68639;52.380;9.822;2024-01-11T03:43:24;56.40;;;26.23;;
79212;SDS011;68639;52.380;9.822;2024-01-11T03:45:49;57.33;;;26.10;;
79212;SDS011;68639;52.380;9.822;2024-01-11T03:48:14;55.00;;;26.40;;
79212;SDS011;68639;52.380;9.822;2024-01-11T03:50:40;56.67;;;27.30;;
79212;SDS011;68639;52.380;9.822;2024-01-11T03:53:05;52.87;;;26.47;;
79212;SDS011;68639;52.380;9.822;2024-01-11T03:55:30;53.53;;;26.40;;
79212;SDS011;68639;52.380;9.822;2024-01-11T03:57:55;57.47;;;27.90;;
79212;SDS011;68639;52.380;9.822;2024-01-11T04:00:21;60.13;;;27.40;;
79212;SDS011;68639;52.380;9.822;2024-01-11T04:02:46;60.07;;;27.70;;
79212;SDS011;68639;52.380;9.822;2024-01-11T04:05:11;56.10;;;26.00;;
79212;SDS011;68639;52.380;9.822;2024-01-11T04:07:36;56.83;;;25.73;;
79212;SDS011;68639;52.380;9.822;2024-01-11T04:10:01;56.80;;;26.90;;
79212;SDS011;68639;52.380;9.822;2024-01-11T04:12:27;55.57;;;26.63;;
79212;SDS011;68639;52.380;9.822;2024-01-11T04:14:52;56.87;;;27.43;;
79212;SDS011;68639;52.380;9.822;2024-01-11T04:17:17;56.30;;;26.33;;
79212;SDS011;68639;52.380;9.822;2024-01-11T04:19:42;59.13;;;26.80;;
79212;SDS011;68639;52.380;9.822;2024-01-11T04:22:07;59.23;;;27.50;;
79212;SDS011;68639;52.380;9.822;2024-01-11T04:24:32;57.30;;;26.10;;
79212;SDS011;68639;52.380;9.822;2024-01-11T04:26:58;56.37;;;26.77;;
79212;SDS011;68639;52.380;9.822;2024-01-11T04:29:23;60.00;;;27.20;;
79212;SDS011;68639;52.380;9.822;2024-01-11T04:31:48;55.90;;;27.00;;
79212;SDS011;68639;52.380;9.822;2024-01-11T04:34:14;58.73;;;26.83;;
79212;SDS011;68639;52.380;9.822;2024-01-11T04:36:39;51.73;;;25.87;;
79212;SDS011;68639;52.380;9.822;2024-01-11T04:39:04;60.27;;;26.83;;
79212;SDS011;68639;52.380;9.822;2024-01-11T04:41:31;53.57;;;26.23;;
79212;SDS011;68639;52.380;9.822;2024-01-11T04:43:56;52.97;;;25.63;;
79212;SDS011;68639;52.380;9.822;2024-01-11T04:46:22;59.80;;;27.40;;
79212;SDS011;68639;52.380;9.822;2024-01-11T04:48:47;53.90;;;24.97;;
79212;SDS011;68639;52.380;9.822;2024-01-11T04:51:14;57.27;;;26.20;;
79212;SDS011;68639;52.380;9.822;2024-01-11T04:53:39;53.00;;;26.27;;
79212;SDS011;68639;52.380;9.822;2024-01-11T04:56:08;52.60;;;26.03;;
79212;SDS011;68639;52.380;9.822;2024-01-11T04:58:34;51.80;;;24.80;;
79212;SDS011;68639;52.380;9.822;2024-01-11T05:00:59;59.40;;;26.57;;
79212;SDS011;68639;52.380;9.822;2024-01-11T05:03:24;57.17;;;26.83;;
79212;SDS011;68639;52.380;9.822;2024-01-11T05:05:50;53.13;;;25.23;;
79212;SDS011;68639;52.380;9.822;2024-01-11T05:08:15;53.33;;;24.93;;
79212;SDS011;68639;52.380;9.822;2024-01-11T05:10:41;59.37;;;26.70;;
79212;SDS011;68639;52.380;9.822;2024-01-11T05:13:06;58.37;;;26.00;;
79212;SDS011;68639;52.380;9.822;2024-01-11T05:15:31;58.00;;;26.57;;
79212;SDS011;68639;52.380;9.822;2024-01-11T05:17:56;53.63;;;25.83;;
79212;SDS011;68639;52.380;9.822;2024-01-11T05:20:21;51.37;;;25.90;;
79212;SDS011;68639;52.380;9.822;2024-01-11T05:22:47;58.50;;;25.37;;
79212;SDS011;68639;52.380;9.822;2024-01-11T05:25:12;51.63;;;24.77;;
79212;SDS011;68639;52.380;9.822;2024-01-11T05:27:37;57.50;;;26.13;;
79212;SDS011;68639;52.380;9.822;2024-01-11T05:30:02;58.57;;;26.60;;
79212;SDS011;68639;52.380;9.822;2024-01-11T05:32:28;56.13;;;26.37;;
79212;SDS011;68639;52.380;9.822;2024-01-11T05:34:53;55.20;;;25.67;;
79212;SDS011;68639;52.380;9.822;2024-01-11T05:37:18;54.43;;;25.30;;
79212;SDS011;68639;52.380;9.822;2024-01-11T05:39:45;52.53;;;24.40;;
79212;SDS011;68639;52.380;9.822;2024-01-11T05:42:11;54.23;;;24.97;;
79212;SDS011;68639;52.380;9.822;2024-01-11T05:44:36;58.13;;;26.00;;
79212;SDS011;68639;52.380;9.822;2024-01-11T05:47:01;56.43;;;26.83;;
79212;SDS011;68639;52.380;9.822;2024-01-11T05:49:26;61.33;;;25.27;;
79212;SDS011;68639;52.380;9.822;2024-01-11T05:51:51;55.47;;;25.43;;
79212;SDS011;68639;52.380;9.822;2024-01-11T05:54:16;56.47;;;26.40;;
79212;SDS011;68639;52.380;9.822;2024-01-11T05:56:42;56.33;;;25.90;;
79212;SDS011;68639;52.380;9.822;2024-01-11T05:59:07;54.77;;;25.53;;
79212;SDS011;68639;52.380;9.822;2024-01-11T06:01:32;55.57;;;25.60;;
79212;SDS011;68639;52.380;9.822;2024-01-11T06:03:57;55.23;;;24.53;;
79212;SDS011;68639;52.380;9.822;2024-01-11T06:06:22;56.37;;;26.23;;
79212;SDS011;68639;52.380;9.822;2024-01-11T06:08:48;55.13;;;26.07;;
79212;SDS011;68639;52.380;9.822;2024-01-11T06:11:13;52.00;;;25.77;;
79212;SDS011;68639;52.380;9.822;2024-01-11T06:13:40;53.30;;;24.63;;
79212;SDS011;68639;52.380;9.822;2024-01-11T06:16:05;56.17;;;26.10;;
79212;SDS011;68639;52.380;9.822;2024-01-11T06:18:30;53.33;;;24.63;;
79212;SDS011;68639;52.380;9.822;2024-01-11T06:20:55;53.13;;;25.50;;
79212;SDS011;68639;52.380;9.822;2024-01-11T06:23:20;55.87;;;25.33;;
79212;SDS011;68639;52.380;9.822;2024-01-11T06:25:46;51.87;;;25.80;;
79212;SDS011;68639;52.380;9.822;2024-01-11T06:28:11;54.13;;;25.57;;
79212;SDS011;68639;52.380;9.822;2024-01-11T06:30:37;53.87;;;24.87;;
79212;SDS011;68639;52.380;9.822;2024-01-11T06:33:02;54.80;;;25.57;;
79212;SDS011;68639;52.380;9.822;2024-01-11T06:35:28;55.43;;;26.00;;
79212;SDS011;68639;52.380;9.822;2024-01-11T06:37:53;57.00;;;25.80;;
79212;SDS011;68639;52.380;9.822;2024-01-11T06:40:18;60.93;;;28.57;;
79212;SDS011;68639;52.380;9.822;2024-01-11T06:42:44;57.20;;;27.47;;
79212;SDS011;68639;52.380;9.822;2024-01-11T06:45:09;58.70;;;28.97;;
79212;SDS011;68639;52.380;9.822;2024-01-11T06:47:34;64.27;;;30.50;;
79212;SDS011;68639;52.380;9.822;2024-01-11T06:50:00;66.07;;;31.97;;
79212;SDS011;68639;52.380;9.822;2024-01-11T06:52:25;63.50;;;30.33;;
79212;SDS011;68639;52.380;9.822;2024-01-11T06:54:50;60.00;;;28.07;;
79212;SDS011;68639;52.380;9.822;2024-01-11T06:57:16;62.77;;;28.43;;
79212;SDS011;68639;52.380;9.822;2024-01-11T06:59:41;57.97;;;26.63;;
79212;SDS011;68639;52.380;9.822;2024-01-11T07:02:06;55.37;;;26.13;;
79212;SDS011;68639;52.380;9.822;2024-01-11T07:04:31;54.67;;;25.97;;
79212;SDS011;68639;52.380;9.822;2024-01-11T07:06:56;57.23;;;26.27;;
79212;SDS011;68639;52.380;9.822;2024-01-11T07:09:22;57.40;;;25.83;;
79212;SDS011;68639;52.380;9.822;2024-01-11T07:11:47;60.70;;;26.50;;
79212;SDS011;68639;52.380;9.822;2024-01-11T07:14:12;58.63;;;26.90;;
79212;SDS011;68639;52.380;9.822;2024-01-11T07:16:37;57.63;;;26.33;;
79212;SDS011;68639;52.380;9.822;2024-01-11T07:19:02;67.83;;;31.80;;
79212;SDS011;68639;52.380;9.822;2024-01-11T07:21:28;58.87;;;27.33;;
79212;SDS011;68639;52.380;9.822;2024-01-11T07:23:59;65.03;;;29.63;;
79212;SDS011;68639;52.380;9.822;2024-01-11T07:26:24;76.83;;;32.60;;
79212;SDS011;68639;52.380;9.822;2024-01-11T07:28:50;77.53;;;33.93;;
79212;SDS011;68639;52.380;9.822;2024-01-11T07:31:15;74.87;;;31.93;;
79212;SDS011;68639;52.380;9.822;2024-01-11T07:33:41;71.10;;;31.77;;
79212;SDS011;68639;52.380;9.822;2024-01-11T07:36:06;63.03;;;28.33;;
79212;SDS011;68639;52.380;9.822;2024-01-11T07:38:31;69.77;;;31.43;;
79212;SDS011;68639;52.380;9.822;2024-01-11T07:40:56;70.33;;;30.27;;
79212;SDS011;68639;52.380;9.822;2024-01-11T07:43:22;70.13;;;30.33;;
79212;SDS011;68639;52.380;9.822;2024-01-11T07:45:47;62.50;;;29.17;;
79212;SDS011;68639;52.380;9.822;2024-01-11T07:48:12;66.00;;;30.37;;
79212;SDS011;68639;52.380;9.822;2024-01-11T07:50:38;68.67;;;29.33;;
79212;SDS011;68639;52.380;9.822;2024-01-11T07:53:03;61.83;;;28.77;;
79212;SDS011;68639;52.380;9.822;2024-01-11T07:55:28;61.00;;;28.43;;
79212;SDS011;68639;52.380;9.822;2024-01-11T07:57:53;70.43;;;30.90;;
79212;SDS011;68639;52.380;9.822;2024-01-11T08:00:19;67.97;;;29.70;;
79212;SDS011;68639;52.380;9.822;2024-01-11T08:02:44;71.73;;;29.90;;
79212;SDS011;68639;52.380;9.822;2024-01-11T08:05:09;66.33;;;30.37;;
79212;SDS011;68639;52.380;9.822;2024-01-11T08:07:35;70.60;;;29.87;;
79212;SDS011;68639;52.380;9.822;2024-01-11T08:10:00;67.47;;;30.33;;
79212;SDS011;68639;52.380;9.822;2024-01-11T08:12:25;70.10;;;30.30;;
79212;SDS011;68639;52.380;9.822;2024-01-11T08:14:50;71.90;;;31.40;;
79212;SDS011;68639;52.380;9.822;2024-01-11T08:17:16;68.37;;;30.63;;
79212;SDS011;68639;52.380;9.822;2024-01-11T08:19:41;70.70;;;32.50;;
79212;SDS011;68639;52.380;9.822;2024-01-11T08:22:09;76.07;;;32.00;;
79212;SDS011;68639;52.380;9.822;2024-01-11T08:24:35;67.40;;;30.37;;
79212;SDS011;68639;52.380;9.822;2024-01-11T08:27:01;72.83;;;30.97;;
79212;SDS011;68639;52.380;9.822;2024-01-11T08:29:27;67.93;;;32.07;;
79212;SDS011;68639;52.380;9.822;2024-01-11T08:31:53;69.47;;;31.13;;
79212;SDS011;68639;52.380;9.822;2024-01-11T08:34:19;73.37;;;31.57;;
79212;SDS011;68639;52.380;9.822;2024-01-11T08:36:44;70.47;;;32.70;;
79212;SDS011;68639;52.380;9.822;2024-01-11T08:39:10;70.47;;;30.73;;
79212;SDS011;68639;52.380;9.822;2024-01-11T08:41:37;74.73;;;32.73;;
79212;SDS011;68639;52.380;9.822;2024-01-11T08:44:05;69.50;;;31.80;;
79212;SDS011;68639;52.380;9.822;2024-01-11T08:46:33;68.47;;;30.60;;
79212;SDS011;68639;52.380;9.822;2024-01-11T08:48:59;65.67;;;30.57;;
79212;SDS011;68639;52.380;9.822;2024-01-11T08:51:24;72.40;;;32.00;;
79212;SDS011;68639;52.380;9.822;2024-01-11T08:53:49;67.27;;;30.47;;
79212;SDS011;68639;52.380;9.822;2024-01-11T08:56:14;64.93;;;30.70;;
79212;SDS011;68639;52.380;9.822;2024-01-11T08:58:41;69.03;;;31.93;;
79212;SDS011;68639;52.380;9.822;2024-01-11T09:01:07;64.47;;;30.47;;
79212;SDS011;68639;52.380;9.822;2024-01-11T09:03:33;65.20;;;30.27;;
79212;SDS011;68639;52.380;9.822;2024-01-11T09:05:58;69.47;;;31.17;;
79212;SDS011;68639;52.380;9.822;2024-01-11T09:08:24;64.17;;;30.00;;
79212;SDS011;68639;52.380;9.822;2024-01-11T09:10:49;70.37;;;30.87;;
79212;SDS011;68639;52.380;9.822;2024-01-11T09:13:14;64.17;;;30.03;;
79212;SDS011;68639;52.380;9.822;2024-01-11T09:15:40;70.40;;;30.80;;
79212;SDS011;68639;52.380;9.822;2024-01-11T09:18:06;74.87;;;32.57;;
79212;SDS011;68639;52.380;9.822;2024-01-11T09:20:31;65.93;;;30.40;;
79212;SDS011;68639;52.380;9.822;2024-01-11T09:22:56;73.07;;;32.47;;
79212;SDS011;68639;52.380;9.822;2024-01-11T09:25:21;69.93;;;30.97;;
79212;SDS011;68639;52.380;9.822;2024-01-11T09:27:46;77.83;;;33.13;;
79212;SDS011;68639;52.380;9.822;2024-01-11T09:30:12;70.83;;;30.70;;
79212;SDS011;68639;52.380;9.822;2024-01-11T09:32:37;74.63;;;30.37;;
79212;SDS011;68639;52.380;9.822;2024-01-11T09:35:03;72.70;;;31.67;;
79212;SDS011;68639;52.380;9.822;2024-01-11T09:37:29;75.93;;;31.27;;
79212;SDS011;68639;52.380;9.822;2024-01-11T09:39:54;71.87;;;32.23;;
79212;SDS011;68639;52.380;9.822;2024-01-11T09:42:20;73.57;;;32.03;;
79212;SDS011;68639;52.380;9.822;2024-01-11T09:44:45;67.77;;;30.83;;
79212;SDS011;68639;52.380;9.822;2024-01-11T09:47:11;74.13;;;31.43;;
79212;SDS011;68639;52.380;9.822;2024-01-11T09:49:36;74.07;;;31.97;;
79212;SDS011;68639;52.380;9.822;2024-01-11T09:52:03;77.33;;;33.40;;
79212;SDS011;68639;52.380;9.822;2024-01-11T09:54:29;69.80;;;31.60;;
79212;SDS011;68639;52.380;9.822;2024-01-11T09:56:54;73.57;;;32.30;;
79212;SDS011;68639;52.380;9.822;2024-01-11T09:59:22;70.53;;;29.90;;
79212;SDS011;68639;52.380;9.822;2024-01-11T10:01:48;64.17;;;29.67;;
79212;SDS011;68639;52.380;9.822;2024-01-11T10:04:14;74.33;;;30.40;;
79212;SDS011;68639;52.380;9.822;2024-01-11T10:06:40;69.43;;;30.50;;
79212;SDS011;68639;52.380;9.822;2024-01-11T10:09:05;69.63;;;29.87;;
79212;SDS011;68639;52.380;9.822;2024-01-11T10:11:30;69.83;;;29.80;;
79212;SDS011;68639;52.380;9.822;2024-01-11T10:13:56;74.47;;;30.23;;
79212;SDS011;68639;52.380;9.822;2024-01-11T10:16:21;74.33;;;32.03;;
79212;SDS011;68639;52.380;9.822;2024-01-11T10:18:46;70.80;;;29.40;;
79212;SDS011;68639;52.380;9.822;2024-01-11T10:21:12;83.60;;;29.97;;
79212;SDS011;68639;52.380;9.822;2024-01-11T10:23:37;77.63;;;31.37;;
79212;SDS011;68639;52.380;9.822;2024-01-11T10:26:04;72.70;;;29.53;;
79212;SDS011;68639;52.380;9.822;2024-01-11T10:28:29;68.00;;;28.77;;
79212;SDS011;68639;52.380;9.822;2024-01-11T10:30:54;67.83;;;28.33;;
79212;SDS011;68639;52.380;9.822;2024-01-11T10:33:20;76.07;;;29.47;;
79212;SDS011;68639;52.380;9.822;2024-01-11T10:35:46;75.77;;;30.30;;
79212;SDS011;68639;52.380;9.822;2024-01-11T10:38:13;79.77;;;31.57;;
79212;SDS011;68639;52.380;9.822;2024-01-11T10:40:39;79.63;;;30.70;;
79212;SDS011;68639;52.380;9.822;2024-01-11T10:43:05;80.23;;;32.50;;
79212;SDS011;68639;52.380;9.822;2024-01-11T10:45:34;84.87;;;32.03;;
79212;SDS011;68639;52.380;9.822;2024-01-11T10:48:03;96.00;;;33.13;;
79212;SDS011;68639;52.380;9.822;2024-01-11T10:50:36;85.20;;;30.83;;
79212;SDS011;68639;52.380;9.822;2024-01-11T10:55:49;117.67;;;33.80;;
79212;SDS011;68639;52.380;9.822;2024-01-11T10:58:15;112.07;;;34.07;;
79212;SDS011;68639;52.380;9.822;2024-01-11T11:00:40;122.23;;;33.97;;
79212;SDS011;68639;52.380;9.822;2024-01-11T11:03:05;81.80;;;30.07;;
79212;SDS011;68639;52.380;9.822;2024-01-11T11:05:32;97.83;;;30.23;;
79212;SDS011;68639;52.380;9.822;2024-01-11T11:08:00;98.40;;;29.57;;
79212;SDS011;68639;52.380;9.822;2024-01-11T11:10:26;96.50;;;31.00;;
79212;SDS011;68639;52.380;9.822;2024-01-11T11:12:52;108.90;;;31.87;;
79212;SDS011;68639;52.380;9.822;2024-01-11T11:15:19;90.80;;;29.03;;
79212;SDS011;68639;52.380;9.822;2024-01-11T11:17:45;98.70;;;32.10;;
79212;SDS011;68639;52.380;9.822;2024-01-11T11:20:11;95.13;;;31.57;;
79212;SDS011;68639;52.380;9.822;2024-01-11T11:22:42;90.13;;;30.60;;
79212;SDS011;68639;52.380;9.822;2024-01-11T11:25:10;91.70;;;30.17;;
79212;SDS011;68639;52.380;9.822;2024-01-11T11:27:36;89.27;;;31.47;;
79212;SDS011;68639;52.380;9.822;2024-01-11T11:30:02;74.77;;;26.53;;
79212;SDS011;68639;52.380;9.822;2024-01-11T11:32:35;76.43;;;25.07;;
79212;SDS011;68639;52.380;9.822;2024-01-11T11:35:01;94.23;;;30.80;;
79212;SDS011;68639;52.380;9.822;2024-01-11T11:37:28;88.67;;;30.33;;
79212;SDS011;68639;52.380;9.822;2024-01-11T11:39:54;82.47;;;30.63;;
79212;SDS011;68639;52.380;9.822;2024-01-11T11:42:21;85.30;;;30.77;;
79212;SDS011;68639;52.380;9.822;2024-01-11T11:44:49;81.40;;;30.87;;
79212;SDS011;68639;52.380;9.822;2024-01-11T11:47:18;83.40;;;29.90;;
79212;SDS011;68639;52.380;9.822;2024-01-11T11:52:39;80.93;;;30.13;;
79212;SDS011;68639;52.380;9.822;2024-01-11T11:55:07;92.30;;;32.03;;
79212;SDS011;68639;52.380;9.822;2024-01-11T11:57:33;81.50;;;29.80;;
79212;SDS011;68639;52.380;9.822;2024-01-11T11:59:58;85.43;;;30.77;;
79212;SDS011;68639;52.380;9.822;2024-01-11T12:02:24;78.57;;;29.73;;
79212;SDS011;68639;52.380;9.822;2024-01-11T12:04:50;66.77;;;27.40;;
79212;SDS011;68639;52.380;9.822;2024-01-11T12:07:15;84.27;;;28.80;;
79212;SDS011;68639;52.380;9.822;2024-01-11T12:09:41;75.87;;;27.53;;
79212;SDS011;68639;52.380;9.822;2024-01-11T12:12:06;80.57;;;28.17;;
79212;SDS011;68639;52.380;9.822;2024-01-11T12:14:31;73.10;;;28.67;;
79212;SDS011;68639;52.380;9.822;2024-01-11T12:16:57;75.23;;;27.70;;
79212;SDS011;68639;52.380;9.822;2024-01-11T12:19:23;65.50;;;26.60;;
79212;SDS011;68639;52.380;9.822;2024-01-11T12:21:48;74.93;;;27.27;;
79212;SDS011;68639;52.380;9.822;2024-01-11T12:24:14;64.47;;;26.13;;
79212;SDS011;68639;52.380;9.822;2024-01-11T12:26:40;70.87;;;26.77;;
79212;SDS011;68639;52.380;9.822;2024-01-11T12:29:05;68.70;;;25.27;;
79212;SDS011;68639;52.380;9.822;2024-01-11T12:31:31;66.63;;;26.07;;
79212;SDS011;68639;52.380;9.822;2024-01-11T12:33:56;67.63;;;25.03;;
79212;SDS011;68639;52.380;9.822;2024-01-11T12:36:22;65.97;;;24.73;;
79212;SDS011;68639;52.380;9.822;2024-01-11T12:38:48;67.97;;;26.33;;
79212;SDS011;68639;52.380;9.822;2024-01-11T12:41:13;58.77;;;24.40;;
79212;SDS011;68639;52.380;9.822;2024-01-11T12:43:38;61.07;;;24.33;;
79212;SDS011;68639;52.380;9.822;2024-01-11T12:46:04;57.37;;;22.47;;
79212;SDS011;68639;52.380;9.822;2024-01-11T12:48:29;56.33;;;20.43;;
79212;SDS011;68639;52.380;9.822;2024-01-11T12:50:55;52.70;;;20.03;;
79212;SDS011;68639;52.380;9.822;2024-01-11T12:53:20;58.20;;;20.37;;
79212;SDS011;68639;52.380;9.822;2024-01-11T12:55:45;50.73;;;19.07;;
79212;SDS011;68639;52.380;9.822;2024-01-11T12:58:11;54.37;;;20.23;;
79212;SDS011;68639;52.380;9.822;2024-01-11T13:00:36;45.20;;;18.00;;
79212;SDS011;68639;52.380;9.822;2024-01-11T13:03:02;51.20;;;18.83;;
79212;SDS011;68639;52.380;9.822;2024-01-11T13:05:27;58.73;;;18.70;;
79212;SDS011;68639;52.380;9.822;2024-01-11T13:07:53;49.73;;;19.57;;
79212;SDS011;68639;52.380;9.822;2024-01-11T13:10:18;51.30;;;19.27;;
79212;SDS011;68639;52.380;9.822;2024-01-11T13:12:43;53.63;;;19.20;;
79212;SDS011;68639;52.380;9.822;2024-01-11T13:15:08;54.20;;;21.57;;
79212;SDS011;68639;52.380;9.822;2024-01-11T13:17:33;56.27;;;20.20;;
79212;SDS011;68639;52.380;9.822;2024-01-11T13:19:59;59.07;;;20.20;;
79212;SDS011;68639;52.380;9.822;2024-01-11T13:22:26;56.40;;;20.87;;
79212;SDS011;68639;52.380;9.822;2024-01-11T13:24:52;52.53;;;19.73;;
79212;SDS011;68639;52.380;9.822;2024-01-11T13:27:17;55.83;;;20.73;;
79212;SDS011;68639;52.380;9.822;2024-01-11T13:29:42;60.63;;;22.90;;
79212;SDS011;68639;52.380;9.822;2024-01-11T13:32:07;60.63;;;21.70;;
79212;SDS011;68639;52.380;9.822;2024-01-11T13:34:32;61.67;;;21.77;;
79212;SDS011;68639;52.380;9.822;2024-01-11T13:36:58;62.47;;;22.80;;
79212;SDS011;68639;52.380;9.822;2024-01-11T13:39:24;58.83;;;22.13;;
79212;SDS011;68639;52.380;9.822;2024-01-11T13:41:50;59.90;;;22.77;;
79212;SDS011;68639;52.380;9.822;2024-01-11T13:44:15;56.73;;;20.50;;
79212;SDS011;68639;52.380;9.822;2024-01-11T13:46:41;58.07;;;21.07;;
79212;SDS011;68639;52.380;9.822;2024-01-11T13:49:06;58.10;;;21.63;;
79212;SDS011;68639;52.380;9.822;2024-01-11T13:51:31;61.30;;;21.53;;
79212;SDS011;68639;52.380;9.822;2024-01-11T13:53:57;58.57;;;23.00;;
79212;SDS011;68639;52.380;9.822;2024-01-11T13:56:24;62.63;;;23.30;;
79212;SDS011;68639;52.380;9.822;2024-01-11T13:58:49;61.83;;;24.70;;
79212;SDS011;68639;52.380;9.822;2024-01-11T14:01:14;72.30;;;29.20;;
79212;SDS011;68639;52.380;9.822;2024-01-11T14:03:39;69.87;;;23.97;;
79212;SDS011;68639;52.380;9.822;2024-01-11T14:06:04;65.73;;;24.67;;
79212;SDS011;68639;52.380;9.822;2024-01-11T14:08:30;65.57;;;24.53;;
79212;SDS011;68639;52.380;9.822;2024-01-11T14:10:55;58.47;;;23.17;;
79212;SDS011;68639;52.380;9.822;2024-01-11T14:13:21;62.20;;;23.00;;
79212;SDS011;68639;52.380;9.822;2024-01-11T14:15:46;67.63;;;24.17;;